Time;durP1;ratioP1;P1;durP2;ratioP2;P2;SDS_P1;SDS_P2;PMS_P1;PMS_P2;Temp;Humidity;BMP_temperature;BMP_pressure;BME280_temperature;BME280_humidity;BME280_pressure;Samples;Min_cycle;Max_cycle;Signal;HPM_P1;HPM_P2
2023/10/06 00:02:19;;;;;;;0.70;0.70;;;14.50;99.90;;;;;;5108245;27;20632;-66
2023/10/06 00:04:46;;;;;;;1.30;0.80;;;14.50;99.90;;;;;;5109504;28;20198;-66
2023/10/06 00:07:14;;;;;;;0.80;0.80;;;14.50;99.90;;;;;;5108175;28;20204;-66
2023/10/06 00:09:43;;;;;;;1.93;0.90;;;14.50;99.90;;;;;;5107246;27;20200;-66
2023/10/06 00:12:13;;;;;;;0.73;0.73;;;14.50;99.90;;;;;;5110574;28;20198;-66
2023/10/06 00:14:43;;;;;;;1.77;0.90;;;14.50;99.90;;;;;;5103461;28;20194;-66
2023/10/06 00:17:15;;;;;;;0.80;0.80;;;14.40;99.90;;;;;;5110402;28;20643;-66
2023/10/06 00:19:43;;;;;;;1.17;0.80;;;14.40;99.90;;;;;;5102647;28;20253;-66
2023/10/06 00:22:17;;;;;;;0.73;0.70;;;14.50;99.90;;;;;;5105216;28;20209;-66
2023/10/06 00:24:47;;;;;;;1.13;0.70;;;14.50;99.90;;;;;;5110770;28;20237;-66
2023/10/06 00:27:18;;;;;;;0.53;0.53;;;14.50;99.90;;;;;;5107975;28;20219;-66
2023/10/06 00:29:47;;;;;;;0.60;0.60;;;14.50;99.90;;;;;;5106683;28;20207;-66
2023/10/06 00:32:25;;;;;;;0.87;0.63;;;14.50;99.90;;;;;;5109244;28;20331;-66
2023/10/06 00:34:54;;;;;;;0.70;0.70;;;14.60;99.90;;;;;;5109370;28;20691;-66
2023/10/06 00:37:22;;;;;;;1.13;0.90;;;14.60;99.90;;;;;;5103185;28;20219;-66
2023/10/06 00:39:52;;;;;;;0.60;0.60;;;14.60;99.90;;;;;;5109915;28;20757;-66
2023/10/06 00:42:21;;;;;;;3.20;0.80;;;14.50;99.90;;;;;;5105540;28;20282;-66
2023/10/06 00:44:48;;;;;;;0.70;0.70;;;14.50;99.90;;;;;;5118050;28;20261;-67
2023/10/06 00:47:17;;;;;;;1.47;0.90;;;14.50;99.90;;;;;;5109961;28;20242;-66
2023/10/06 00:49:44;;;;;;;0.60;0.60;;;14.40;99.90;;;;;;5105390;28;20227;-67
2023/10/06 00:52:15;;;;;;;0.60;0.60;;;14.50;99.90;;;;;;5109634;28;20236;-67
2023/10/06 00:54:43;;;;;;;0.80;0.77;;;14.50;99.90;;;;;;5105004;28;20223;-67
2023/10/06 00:57:12;;;;;;;1.13;1.03;;;14.50;99.90;;;;;;5105265;28;20199;-66
2023/10/06 00:59:41;;;;;;;0.90;0.90;;;14.50;99.90;;;;;;5110346;28;20290;-66
2023/10/06 01:02:11;;;;;;;0.97;0.90;;;14.50;99.90;;;;;;5111337;28;20203;-67
2023/10/06 01:04:44;;;;;;;1.03;0.80;;;14.50;99.90;;;;;;5111033;27;20200;-65
2023/10/06 01:07:13;;;;;;;1.27;0.90;;;14.60;99.90;;;;;;5111375;28;20243;-66
2023/10/06 01:09:40;;;;;;;0.70;0.60;;;14.50;99.90;;;;;;5108956;28;20567;-66
2023/10/06 01:12:13;;;;;;;0.83;0.83;;;14.60;99.90;;;;;;5111545;28;20563;-66
2023/10/06 01:14:42;;;;;;;0.87;0.70;;;14.50;99.90;;;;;;5113785;28;20191;-66
2023/10/06 01:17:14;;;;;;;1.03;0.80;;;14.50;99.90;;;;;;5110716;28;20188;-66
2023/10/06 01:19:48;;;;;;;1.03;0.67;;;14.50;99.90;;;;;;5113172;28;20221;-66
2023/10/06 01:22:24;;;;;;;0.80;0.73;;;14.50;99.90;;;;;;5111821;28;20207;-66
2023/10/06 01:24:54;;;;;;;0.60;0.60;;;14.50;99.90;;;;;;5110438;28;20213;-66
2023/10/06 01:27:25;;;;;;;0.73;0.73;;;14.50;99.90;;;;;;5112190;28;20231;-66
2023/10/06 01:30:16;;;;;;;1.23;0.90;;;14.50;99.90;;;;;;5113417;28;20199;-66
2023/10/06 01:32:41;;;;;;;0.83;0.60;;;14.50;99.90;;;;;;5143146;27;20219;-66
2023/10/06 01:35:12;;;;;;;1.07;0.57;;;14.50;99.90;;;;;;5105043;28;20546;-66
2023/10/06 01:37:41;;;;;;;1.00;0.60;;;14.50;99.90;;;;;;5111686;28;20184;-66
2023/10/06 01:40:16;;;;;;;0.80;0.80;;;14.50;99.90;;;;;;5110950;28;20199;-65
2023/10/06 01:42:45;;;;;;;0.57;0.57;;;14.50;99.90;;;;;;5113168;28;20195;-66
2023/10/06 01:45:15;;;;;;;0.83;0.60;;;14.50;99.90;;;;;;5107371;27;20192;-66
2023/10/06 01:47:42;;;;;;;0.50;0.50;;;14.50;99.90;;;;;;5113754;27;20257;-66
2023/10/06 01:50:10;;;;;;;2.93;0.83;;;14.50;99.90;;;;;;5110865;28;20199;-66
2023/10/06 01:52:39;;;;;;;0.70;0.70;;;14.50;99.90;;;;;;5107897;28;20192;-66
2023/10/06 01:55:21;;;;;;;1.63;0.40;;;14.50;99.90;;;;;;5110668;28;20197;-66
2023/10/06 01:57:49;;;;;;;0.60;0.60;;;14.50;99.90;;;;;;5112558;28;20227;-66
2023/10/06 02:00:25;;;;;;;1.07;0.70;;;14.40;99.90;;;;;;5107821;28;20645;-66
2023/10/06 02:02:52;;;;;;;1.43;0.50;;;14.40;99.90;;;;;;5111672;27;20226;-65
2023/10/06 02:05:20;;;;;;;0.57;0.57;;;14.40;99.90;;;;;;5108569;28;20192;-65
2023/10/06 02:07:47;;;;;;;1.17;0.63;;;14.40;99.90;;;;;;5112401;28;20751;-65
2023/10/06 02:10:18;;;;;;;0.70;0.70;;;14.40;99.90;;;;;;5113557;28;20253;-65
2023/10/06 02:12:46;;;;;;;1.57;0.90;;;14.40;99.90;;;;;;5109250;28;20192;-66
2023/10/06 02:15:13;;;;;;;1.23;0.77;;;14.40;99.90;;;;;;5111948;28;20228;-66
2023/10/06 02:17:41;;;;;;;0.87;0.83;;;14.30;99.90;;;;;;5113568;28;20200;-66
2023/10/06 02:20:13;;;;;;;0.57;0.57;;;14.40;99.90;;;;;;5107994;28;20612;-66
2023/10/06 02:22:41;;;;;;;0.77;0.70;;;14.30;99.90;;;;;;5112323;28;20212;-66
2023/10/06 02:25:15;;;;;;;1.00;0.90;;;14.30;99.90;;;;;;5111336;28;20207;-66
2023/10/06 02:27:47;;;;;;;0.87;0.80;;;14.40;99.90;;;;;;5109460;28;20207;-67
2023/10/06 02:30:15;;;;;;;0.87;0.70;;;14.30;99.90;;;;;;5107788;28;20185;-66
2023/10/06 02:32:43;;;;;;;0.80;0.70;;;14.30;99.90;;;;;;5110258;28;20196;-66
2023/10/06 02:35:12;;;;;;;1.20;0.70;;;14.30;99.90;;;;;;5109699;28;20199;-67
2023/10/06 02:37:39;;;;;;;0.70;0.70;;;14.30;99.90;;;;;;5110661;28;20210;-66
2023/10/06 02:40:11;;;;;;;1.27;0.90;;;14.30;99.90;;;;;;5106833;28;20602;-67
2023/10/06 02:42:43;;;;;;;0.70;0.70;;;14.30;99.90;;;;;;5112399;27;20618;-67
2023/10/06 02:45:16;;;;;;;1.20;0.80;;;14.30;99.90;;;;;;5112280;28;20214;-67
2023/10/06 02:47:43;;;;;;;1.87;0.90;;;14.30;99.90;;;;;;5109381;28;20279;-66
2023/10/06 02:50:19;;;;;;;0.67;0.63;;;14.20;99.90;;;;;;5110240;28;20237;-66
2023/10/06 02:52:47;;;;;;;0.60;0.60;;;14.20;99.90;;;;;;5109333;28;20298;-66
2023/10/06 02:55:19;;;;;;;0.90;0.90;;;14.20;99.90;;;;;;5108514;28;20249;-67
2023/10/06 02:57:51;;;;;;;0.60;0.60;;;14.20;99.90;;;;;;5111815;28;20239;-66
2023/10/06 03:00:32;;;;;;;1.13;0.70;;;14.20;99.90;;;;;;5109293;27;20295;-66
2023/10/06 03:03:06;;;;;;;0.70;0.70;;;14.20;99.90;;;;;;5111536;28;20257;-66
2023/10/06 03:05:33;;;;;;;1.93;0.97;;;14.30;99.90;;;;;;5111585;28;20202;-66
2023/10/06 03:08:08;;;;;;;1.10;0.70;;;14.30;99.90;;;;;;5105129;28;20204;-65
2023/10/06 03:10:42;;;;;;;1.37;0.70;;;14.30;99.90;;;;;;5144624;27;20686;-66
2023/10/06 03:13:13;;;;;;;0.97;0.60;;;14.30;99.90;;;;;;5110174;28;20200;-66
2023/10/06 03:15:46;;;;;;;1.67;0.80;;;14.30;99.90;;;;;;5108115;28;20559;-66
2023/10/06 03:18:15;;;;;;;0.53;0.50;;;14.30;99.90;;;;;;5111771;28;20267;-66
2023/10/06 03:20:46;;;;;;;0.77;0.70;;;14.30;99.90;;;;;;5110260;28;20208;-66
2023/10/06 03:23:24;;;;;;;3.30;0.70;;;14.30;99.90;;;;;;5108388;28;20196;-66
2023/10/06 03:25:54;;;;;;;0.73;0.70;;;14.30;99.90;;;;;;5110243;28;20205;-66
2023/10/06 03:28:24;;;;;;;1.13;0.80;;;14.30;99.90;;;;;;5106367;27;20223;-65
2023/10/06 03:30:55;;;;;;;0.83;0.60;;;14.30;99.90;;;;;;5144232;27;20294;-66
2023/10/06 03:33:23;;;;;;;0.63;0.63;;;14.30;99.90;;;;;;5109953;28;20697;-66
2023/10/06 03:35:54;;;;;;;0.73;0.73;;;14.40;99.90;;;;;;5108707;28;20199;-66
2023/10/06 03:38:35;;;;;;;1.00;0.57;;;14.40;99.90;;;;;;5106767;28;20202;-66
2023/10/06 03:41:18;;;;;;;0.40;0.40;;;14.40;99.90;;;;;;5103753;28;20196;-66
2023/10/06 03:43:50;;;;;;;1.37;0.73;;;14.30;99.90;;;;;;5107013;27;20725;-66
2023/10/06 03:46:20;;;;;;;1.53;0.60;;;14.40;99.90;;;;;;5131308;27;20612;-66
2023/10/06 03:48:51;;;;;;;0.60;0.60;;;14.30;99.90;;;;;;5106861;28;20204;-65
2023/10/06 03:51:19;;;;;;;1.23;0.60;;;14.40;99.90;;;;;;5110117;27;20666;-65
2023/10/06 03:53:48;;;;;;;0.60;0.60;;;14.40;99.90;;;;;;5110646;28;20214;-65
2023/10/06 03:56:17;;;;;;;0.50;0.50;;;14.50;99.90;;;;;;5107087;27;20196;-65
2023/10/06 03:58:45;;;;;;;0.50;0.50;;;14.50;99.90;;;;;;5111028;28;20223;-66
2023/10/06 04:01:16;;;;;;;0.50;0.50;;;14.50;99.90;;;;;;5110306;28;20527;-66
2023/10/06 04:03:44;;;;;;;0.53;0.53;;;14.60;99.90;;;;;;5106998;28;20279;-66
2023/10/06 04:06:15;;;;;;;0.30;0.30;;;14.50;99.90;;;;;;5110723;28;20207;-65
2023/10/06 04:08:45;;;;;;;0.40;0.40;;;14.50;99.90;;;;;;5110665;28;20207;-67
2023/10/06 04:11:14;;;;;;;0.40;0.40;;;14.60;99.90;;;;;;5106427;28;20192;-67
2023/10/06 04:13:41;;;;;;;0.50;0.50;;;14.60;99.90;;;;;;5110848;28;20227;-66
2023/10/06 04:16:09;;;;;;;0.50;0.50;;;14.60;99.90;;;;;;5109291;28;20184;-66
2023/10/06 04:18:36;;;;;;;1.23;0.70;;;14.50;99.90;;;;;;5108174;28;20229;-65
2023/10/06 04:21:04;;;;;;;0.70;0.60;;;14.50;99.90;;;;;;5109411;28;20203;-66
2023/10/06 04:23:31;;;;;;;1.37;0.73;;;14.40;99.90;;;;;;5102375;28;20180;-66
2023/10/06 04:25:58;;;;;;;0.73;0.60;;;14.50;99.90;;;;;;5143276;27;20328;-66
2023/10/06 04:28:27;;;;;;;0.80;0.60;;;14.50;99.90;;;;;;5142797;27;20296;-66
2023/10/06 04:30:57;;;;;;;1.00;0.63;;;14.50;99.90;;;;;;5107736;28;20195;-66
2023/10/06 04:33:28;;;;;;;0.50;0.50;;;14.50;99.90;;;;;;5109213;28;20276;-66
2023/10/06 04:35:56;;;;;;;0.63;0.63;;;14.50;99.90;;;;;;5108710;28;20631;-66
2023/10/06 04:38:26;;;;;;;0.40;0.40;;;14.50;99.90;;;;;;5102420;28;20188;-66
2023/10/06 04:40:53;;;;;;;0.53;0.53;;;14.60;99.90;;;;;;5110607;28;20199;-66
2023/10/06 04:43:20;;;;;;;0.57;0.43;;;14.60;99.90;;;;;;5109288;28;20249;-66
2023/10/06 04:45:48;;;;;;;0.60;0.60;;;14.60;99.90;;;;;;5107872;28;20188;-66
2023/10/06 04:48:18;;;;;;;0.90;0.60;;;14.60;99.90;;;;;;5109923;28;20497;-66
2023/10/06 04:50:46;;;;;;;1.13;0.83;;;14.60;99.90;;;;;;5108269;28;20595;-66
2023/10/06 04:53:13;;;;;;;0.93;0.70;;;14.60;99.90;;;;;;5109109;28;20213;-67
2023/10/06 04:55:43;;;;;;;0.80;0.60;;;14.60;99.90;;;;;;5109741;28;20199;-67
2023/10/06 04:58:13;;;;;;;2.30;0.77;;;14.60;99.90;;;;;;5101377;28;20295;-65
2023/10/06 05:00:40;;;;;;;0.63;0.63;;;14.60;99.90;;;;;;5110317;28;20620;-66
2023/10/06 05:03:10;;;;;;;0.90;0.60;;;14.60;99.90;;;;;;5111159;28;20211;-66
2023/10/06 05:05:38;;;;;;;1.43;0.73;;;14.70;99.90;;;;;;5105654;28;20241;-67
2023/10/06 05:08:09;;;;;;;2.10;0.80;;;14.70;99.90;;;;;;5109234;28;20219;-66
2023/10/06 05:10:37;;;;;;;1.97;0.50;;;14.70;99.90;;;;;;5110041;28;20215;-66
2023/10/06 05:13:06;;;;;;;1.70;0.60;;;14.70;99.90;;;;;;5106315;28;20210;-67
2023/10/06 05:15:34;;;;;;;0.60;0.50;;;14.60;99.90;;;;;;5110278;28;20199;-66
2023/10/06 05:18:03;;;;;;;1.63;0.63;;;14.60;99.90;;;;;;5109206;28;20253;-67
2023/10/06 05:20:31;;;;;;;0.50;0.50;;;15.20;99.90;;;;;;5107229;28;20188;-66
2023/10/06 05:23:01;;;;;;;1.17;0.50;;;14.60;99.90;;;;;;5109357;28;20249;-66
2023/10/06 05:25:30;;;;;;;1.03;0.73;;;14.70;99.90;;;;;;5107802;28;20184;-66
2023/10/06 05:27:59;;;;;;;0.63;0.50;;;14.70;99.90;;;;;;5109584;28;20235;-66
2023/10/06 05:30:28;;;;;;;1.37;0.90;;;14.70;99.90;;;;;;5110238;28;20204;-67
2023/10/06 05:32:58;;;;;;;0.67;0.67;;;14.70;99.90;;;;;;5094984;28;20196;-67
2023/10/06 05:35:25;;;;;;;0.87;0.60;;;14.70;99.90;;;;;;5109006;28;20192;-67
2023/10/06 05:37:53;;;;;;;0.43;0.43;;;14.60;99.90;;;;;;5142051;27;20740;-67
2023/10/06 05:40:21;;;;;;;0.50;0.50;;;14.60;99.90;;;;;;5103180;28;20713;-67
2023/10/06 05:42:49;;;;;;;1.13;0.77;;;14.70;99.90;;;;;;5109136;28;20565;-67
2023/10/06 05:45:18;;;;;;;0.70;0.70;;;14.70;99.90;;;;;;5106023;28;20299;-67
2023/10/06 05:47:48;;;;;;;1.47;1.00;;;14.70;99.90;;;;;;5141992;27;20615;-67
2023/10/06 05:50:27;;;;;;;0.93;0.70;;;14.70;99.90;;;;;;5112573;28;20631;-66
2023/10/06 05:53:01;;;;;;;0.90;0.80;;;14.70;99.90;;;;;;5107222;27;20274;-66
2023/10/06 05:55:33;;;;;;;0.80;0.70;;;14.70;99.90;;;;;;5112927;28;20199;-67
2023/10/06 05:58:01;;;;;;;1.20;0.97;;;14.70;99.90;;;;;;5111081;28;20238;-66
2023/10/06 06:00:30;;;;;;;2.03;1.00;;;14.70;99.90;;;;;;5103316;27;20216;-66
2023/10/06 06:03:09;;;;;;;1.23;1.00;;;14.70;99.90;;;;;;5110600;27;20208;-67
2023/10/06 06:05:38;;;;;;;2.27;1.10;;;14.60;99.90;;;;;;5110997;28;20324;-66
2023/10/06 06:08:06;;;;;;;1.37;1.00;;;14.60;99.90;;;;;;5107765;28;20355;-66
2023/10/06 06:10:35;;;;;;;0.90;0.90;;;14.60;99.90;;;;;;5111250;28;20237;-67
2023/10/06 06:13:02;;;;;;;1.20;0.73;;;14.60;99.90;;;;;;5106244;28;20211;-67
2023/10/06 06:15:31;;;;;;;3.13;0.90;;;14.60;99.90;;;;;;5109471;27;20651;-67
2023/10/06 06:18:00;;;;;;;0.90;0.90;;;14.60;99.90;;;;;;5111573;28;20578;-66
2023/10/06 06:20:28;;;;;;;1.83;0.93;;;14.60;99.90;;;;;;5106906;27;20192;-67
2023/10/06 06:22:58;;;;;;;0.60;0.60;;;14.70;99.90;;;;;;5111342;28;20188;-66
2023/10/06 06:25:26;;;;;;;0.93;0.90;;;14.60;99.90;;;;;;5106450;28;20215;-66
2023/10/06 06:27:54;;;;;;;1.27;1.00;;;14.70;99.90;;;;;;5106441;28;20239;-66
2023/10/06 06:30:23;;;;;;;2.23;0.73;;;14.70;99.90;;;;;;5105380;28;20187;-66
2023/10/06 06:32:52;;;;;;;1.43;1.07;;;14.80;99.90;;;;;;5111228;28;20215;-66
2023/10/06 06:35:21;;;;;;;1.53;1.00;;;14.80;99.90;;;;;;5100829;27;20282;-65
2023/10/06 06:37:51;;;;;;;0.87;0.80;;;14.80;99.90;;;;;;5109778;28;20588;-67
2023/10/06 06:40:20;;;;;;;1.80;0.90;;;14.90;99.90;;;;;;5111353;27;20192;-67
2023/10/06 06:42:49;;;;;;;2.73;1.00;;;14.90;99.90;;;;;;5108100;27;20196;-67
2023/10/06 06:45:16;;;;;;;1.00;0.90;;;15.00;99.90;;;;;;5112079;27;20622;-67
2023/10/06 06:47:43;;;;;;;1.27;0.80;;;15.10;99.90;;;;;;5111131;27;20193;-66
2023/10/06 06:50:12;;;;;;;0.77;0.73;;;15.10;99.90;;;;;;5108469;28;20203;-67
2023/10/06 06:52:41;;;;;;;1.63;1.20;;;15.20;99.90;;;;;;5110656;28;20208;-66
2023/10/06 06:55:12;;;;;;;2.20;1.07;;;15.20;99.90;;;;;;5104465;27;20204;-66
2023/10/06 06:57:44;;;;;;;6.40;0.90;;;15.20;99.90;;;;;;5109914;28;20235;-66
2023/10/06 07:00:16;;;;;;;1.47;0.90;;;15.30;99.90;;;;;;5110696;28;20649;-65
2023/10/06 07:02:44;;;;;;;3.37;1.27;;;15.30;99.90;;;;;;5110669;27;20186;-66
2023/10/06 07:05:12;;;;;;;2.03;1.10;;;15.30;99.90;;;;;;5108215;28;20265;-66
2023/10/06 07:07:43;;;;;;;3.80;1.10;;;15.30;99.90;;;;;;5104678;28;20701;-66
2023/10/06 07:10:13;;;;;;;2.20;1.10;;;15.30;99.90;;;;;;5106360;27;20219;-67
2023/10/06 07:12:42;;;;;;;1.17;0.87;;;15.30;99.90;;;;;;5102160;28;20716;-66
2023/10/06 07:15:14;;;;;;;3.07;1.20;;;15.40;99.90;;;;;;5109509;27;20196;-67
2023/10/06 07:17:45;;;;;;;1.30;1.10;;;15.40;99.90;;;;;;5108819;28;20206;-67
2023/10/06 07:20:16;;;;;;;2.43;1.30;;;15.40;99.90;;;;;;5110630;27;20555;-67
2023/10/06 07:22:46;;;;;;;1.30;0.90;;;15.40;99.90;;;;;;5109676;27;20655;-67
2023/10/06 07:25:15;;;;;;;3.23;1.53;;;15.40;99.90;;;;;;5109787;28;20200;-66
2023/10/06 07:27:46;;;;;;;2.93;1.60;;;15.40;99.90;;;;;;5109842;28;20478;-66
2023/10/06 07:30:15;;;;;;;2.10;1.30;;;15.40;99.90;;;;;;5108161;28;20250;-66
2023/10/06 07:32:43;;;;;;;1.63;1.37;;;15.40;99.90;;;;;;5110128;28;20197;-66
2023/10/06 07:35:12;;;;;;;2.53;1.20;;;15.40;99.90;;;;;;5107037;28;20304;-66
2023/10/06 07:37:42;;;;;;;1.70;1.30;;;15.40;99.90;;;;;;5106955;27;20319;-67
2023/10/06 07:40:18;;;;;;;1.40;1.20;;;15.40;99.90;;;;;;5103848;27;20196;-67
2023/10/06 07:42:48;;;;;;;2.03;1.37;;;15.40;99.90;;;;;;5106416;27;20264;-67
2023/10/06 07:45:16;;;;;;;2.63;1.20;;;15.40;99.90;;;;;;5135707;27;20623;-67
2023/10/06 07:47:44;;;;;;;1.37;1.00;;;15.30;99.90;;;;;;5109508;28;20191;-72
2023/10/06 07:50:14;;;;;;;1.20;1.10;;;15.30;99.90;;;;;;5106854;28;20706;-72
2023/10/06 07:52:41;;;;;;;2.33;1.20;;;15.40;99.90;;;;;;5106595;28;20333;-67
2023/10/06 07:55:11;;;;;;;1.47;1.20;;;15.50;99.90;;;;;;5107951;28;20218;-67
2023/10/06 07:57:41;;;;;;;1.37;1.00;;;15.50;99.90;;;;;;5107773;27;20565;-67
2023/10/06 08:00:10;;;;;;;2.20;1.20;;;15.50;99.90;;;;;;5108377;28;20188;-67
2023/10/06 08:02:40;;;;;;;1.80;1.20;;;15.50;99.90;;;;;;5141921;27;20184;-67
2023/10/06 08:05:11;;;;;;;2.90;1.10;;;15.50;99.90;;;;;;5104466;27;20195;-67
2023/10/06 08:07:40;;;;;;;1.83;0.93;;;15.50;99.90;;;;;;5104960;28;20268;-67
2023/10/06 08:10:13;;;;;;;1.10;0.87;;;15.60;99.90;;;;;;5108108;28;20406;-68
2023/10/06 08:12:43;;;;;;;2.87;1.03;;;15.60;99.90;;;;;;5107330;28;20192;-68
2023/10/06 08:15:11;;;;;;;2.53;1.30;;;15.60;99.90;;;;;;5108368;28;20223;-68
2023/10/06 08:17:38;;;;;;;1.27;1.17;;;15.70;99.90;;;;;;5105489;28;20215;-67
2023/10/06 08:20:06;;;;;;;1.87;0.93;;;15.70;99.90;;;;;;5131149;27;20231;-67
2023/10/06 08:22:33;;;;;;;3.80;1.63;;;15.70;99.90;;;;;;5101686;28;20192;-66
2023/10/06 08:25:05;;;;;;;3.33;1.20;;;15.70;99.90;;;;;;5103722;28;20260;-67
2023/10/06 08:27:33;;;;;;;2.80;1.20;;;15.80;99.90;;;;;;5108033;28;20225;-67
2023/10/06 08:30:01;;;;;;;2.00;1.00;;;15.80;99.90;;;;;;5108724;28;20252;-68
2023/10/06 08:32:28;;;;;;;2.10;1.10;;;15.80;99.90;;;;;;5100224;27;20773;-67
2023/10/06 08:34:55;;;;;;;1.67;1.20;;;15.80;99.90;;;;;;5102327;28;20265;-67
2023/10/06 08:37:23;;;;;;;1.20;0.90;;;15.80;99.90;;;;;;5102915;28;20207;-66
2023/10/06 08:39:50;;;;;;;2.80;1.07;;;15.80;99.90;;;;;;5105664;28;20196;-67
2023/10/06 08:42:17;;;;;;;3.23;1.57;;;15.80;99.90;;;;;;5107624;28;20206;-67
2023/10/06 08:44:46;;;;;;;2.63;1.00;;;15.80;99.90;;;;;;5105001;28;20486;-68
2023/10/06 08:47:16;;;;;;;4.57;1.83;;;15.80;99.90;;;;;;5104287;28;20234;-68
2023/10/06 08:49:46;;;;;;;2.57;1.37;;;15.80;99.90;;;;;;5107378;28;20208;-66
2023/10/06 08:52:14;;;;;;;5.17;1.50;;;15.80;99.90;;;;;;5105991;28;20670;-68
2023/10/06 08:54:45;;;;;;;4.00;1.47;;;15.80;99.90;;;;;;5121657;28;21333;-67
2023/10/06 08:57:12;;;;;;;2.57;1.60;;;15.80;99.90;;;;;;5102966;28;20233;-68
2023/10/06 08:59:40;;;;;;;1.10;1.00;;;15.80;99.90;;;;;;5104984;28;20192;-67
2023/10/06 09:02:10;;;;;;;8.80;1.40;;;15.80;99.90;;;;;;5106717;28;20283;-67
2023/10/06 09:04:38;;;;;;;5.10;1.30;;;15.80;99.90;;;;;;5101691;28;20213;-67
2023/10/06 09:07:11;;;;;;;1.77;1.20;;;15.80;99.90;;;;;;5105629;28;20256;-67
2023/10/06 09:09:40;;;;;;;5.10;1.50;;;15.80;99.90;;;;;;5102056;28;20637;-68
2023/10/06 09:12:09;;;;;;;1.83;0.97;;;15.80;99.90;;;;;;5107763;28;20273;-68
2023/10/06 09:14:52;;;;;;;3.13;1.30;;;15.80;99.90;;;;;;5105203;28;20220;-67
2023/10/06 09:17:31;;;;;;;6.87;1.70;;;15.80;99.90;;;;;;5107332;28;20211;-68
2023/10/06 09:20:00;;;;;;;2.87;1.50;;;15.80;99.90;;;;;;5102646;28;20261;-67
2023/10/06 09:22:30;;;;;;;2.80;1.43;;;15.80;99.90;;;;;;5104548;28;20189;-69
2023/10/06 09:24:59;;;;;;;3.23;1.27;;;15.80;99.90;;;;;;5108254;28;20642;-68
2023/10/06 09:27:28;;;;;;;4.23;1.67;;;15.80;99.90;;;;;;5108605;28;20192;-67
2023/10/06 09:30:07;;;;;;;3.53;1.70;;;15.80;99.90;;;;;;5110895;28;20708;-66
2023/10/06 09:32:35;;;;;;;7.00;1.90;;;15.80;99.90;;;;;;5111709;28;20282;-68
2023/10/06 09:35:22;;;;;;;2.67;1.80;;;15.80;99.90;;;;;;5106918;28;20208;-67
2023/10/06 09:37:51;;;;;;;3.97;2.03;;;15.80;99.90;;;;;;5105595;27;20193;-68
2023/10/06 09:40:21;;;;;;;3.80;2.07;;;15.80;99.90;;;;;;5110209;27;20276;-68
2023/10/06 09:42:49;;;;;;;6.00;1.83;;;15.30;99.90;;;;;;5110722;27;20632;-66
2023/10/06 09:45:20;;;;;;;5.57;1.93;;;15.80;99.90;;;;;;5112015;28;20246;-67
2023/10/06 09:47:50;;;;;;;2.40;1.60;;;15.80;99.90;;;;;;5113023;27;20212;-67
2023/10/06 09:50:20;;;;;;;6.77;2.00;;;15.80;99.90;;;;;;5108947;28;20214;-68
2023/10/06 09:52:50;;;;;;;2.57;1.40;;;15.90;99.90;;;;;;5140673;27;20211;-68
2023/10/06 09:55:19;;;;;;;7.23;2.00;;;15.90;99.90;;;;;;5107928;28;20656;-67
2023/10/06 09:57:48;;;;;;;3.87;1.60;;;15.90;99.90;;;;;;5110720;28;20843;-67
2023/10/06 10:00:17;;;;;;;4.73;2.20;;;15.90;99.90;;;;;;5108125;28;20616;-67
2023/10/06 10:02:47;;;;;;;3.77;1.50;;;15.90;99.90;;;;;;5113444;27;20195;-67
2023/10/06 10:05:14;;;;;;;5.77;1.60;;;15.90;99.90;;;;;;5110321;27;20271;-67
2023/10/06 10:07:42;;;;;;;3.70;1.50;;;15.90;99.90;;;;;;5111255;27;20260;-67
2023/10/06 10:10:13;;;;;;;3.23;1.60;;;15.90;99.90;;;;;;5108052;28;20208;-67
2023/10/06 10:13:07;;;;;;;2.10;1.27;;;15.90;99.90;;;;;;5111012;27;20554;-67
2023/10/06 10:15:47;;;;;;;1.77;1.50;;;15.90;99.90;;;;;;5123988;27;20578;-66
2023/10/06 10:18:23;;;;;;;4.00;1.90;;;15.90;99.90;;;;;;5109276;28;20843;-67
2023/10/06 10:20:50;;;;;;;6.30;1.80;;;16.00;99.90;;;;;;5104697;28;20194;-68
2023/10/06 10:23:18;;;;;;;6.00;1.63;;;16.00;99.90;;;;;;5106730;28;20196;-68
2023/10/06 10:25:46;;;;;;;3.23;1.60;;;16.00;99.90;;;;;;5105229;28;20682;-67
2023/10/06 10:28:17;;;;;;;2.67;1.67;;;16.00;99.90;;;;;;5105402;28;20196;-67
2023/10/06 10:31:02;;;;;;;2.70;1.60;;;16.00;99.90;;;;;;5125139;27;20233;-66
2023/10/06 10:33:34;;;;;;;2.53;1.43;;;16.00;99.90;;;;;;5106451;27;20261;-66
2023/10/06 10:36:21;;;;;;;2.30;2.10;;;16.00;99.90;;;;;;5103844;27;20250;-67
2023/10/06 10:39:07;;;;;;;5.30;2.40;;;16.00;99.90;;;;;;5108288;28;20688;-67
2023/10/06 10:41:41;;;;;;;3.67;1.93;;;16.10;99.90;;;;;;5106834;27;20281;-67
2023/10/06 10:44:11;;;;;;;2.90;1.90;;;16.10;99.90;;;;;;5099306;28;20276;-66
2023/10/06 10:46:44;;;;;;;2.30;1.70;;;16.10;99.90;;;;;;5110871;27;20183;-67
2023/10/06 10:49:13;;;;;;;2.67;2.00;;;16.10;99.90;;;;;;5106763;28;20210;-68
2023/10/06 10:51:51;;;;;;;2.60;1.83;;;16.10;99.90;;;;;;5105279;28;20209;-68
2023/10/06 10:54:22;;;;;;;1.90;1.60;;;16.10;99.90;;;;;;5108642;28;20275;-67
2023/10/06 10:56:53;;;;;;;3.97;2.20;;;16.10;99.90;;;;;;5102492;28;20204;-67
2023/10/06 10:59:21;;;;;;;5.17;2.00;;;16.10;99.90;;;;;;5110847;28;20265;-67
2023/10/06 11:01:53;;;;;;;2.50;1.57;;;16.10;99.90;;;;;;5106513;27;20197;-67
2023/10/06 11:04:31;;;;;;;2.60;1.63;;;16.10;99.90;;;;;;5106696;27;20269;-67
2023/10/06 11:07:04;;;;;;;1.63;1.53;;;16.10;99.90;;;;;;5106873;28;20200;-67
2023/10/06 11:09:37;;;;;;;2.13;1.90;;;16.20;99.90;;;;;;5106510;28;20243;-67
2023/10/06 11:12:19;;;;;;;1.77;1.67;;;16.20;99.90;;;;;;5105575;28;20197;-67
2023/10/06 11:14:49;;;;;;;3.23;2.00;;;16.20;99.90;;;;;;5109953;28;20209;-67
2023/10/06 11:17:20;;;;;;;3.20;1.80;;;16.20;99.90;;;;;;5104681;27;20198;-68
2023/10/06 11:19:48;;;;;;;1.83;1.73;;;16.20;99.90;;;;;;5108146;27;20203;-68
2023/10/06 11:22:19;;;;;;;5.13;2.40;;;16.10;99.90;;;;;;5108107;28;20239;-68
2023/10/06 11:24:48;;;;;;;2.27;2.07;;;16.10;99.90;;;;;;5106450;28;20270;-68
2023/10/06 11:27:21;;;;;;;2.20;2.00;;;16.10;99.90;;;;;;5104837;27;20533;-68
2023/10/06 11:29:51;;;;;;;2.80;2.07;;;16.10;99.90;;;;;;5107380;28;20234;-67
2023/10/06 11:32:19;;;;;;;2.03;1.87;;;16.00;99.90;;;;;;5106441;27;20237;-68
2023/10/06 11:34:48;;;;;;;2.77;1.80;;;16.00;99.90;;;;;;5108346;28;20200;-67
2023/10/06 11:37:17;;;;;;;2.30;2.10;;;16.00;99.90;;;;;;5105591;28;20254;-67
2023/10/06 11:39:44;;;;;;;2.77;2.27;;;16.10;99.90;;;;;;5109645;27;20531;-67
2023/10/06 11:42:35;;;;;;;2.87;2.23;;;16.10;99.90;;;;;;5109081;27;20281;-66
2023/10/06 11:45:06;;;;;;;2.63;2.00;;;16.00;99.90;;;;;;5105217;27;20600;-68
2023/10/06 11:47:40;;;;;;;2.43;2.20;;;16.00;99.90;;;;;;5110285;28;20194;-67
2023/10/06 11:50:09;;;;;;;3.97;2.43;;;16.00;99.90;;;;;;5108253;28;20301;-68
2023/10/06 11:52:44;;;;;;;5.00;3.23;;;16.10;99.90;;;;;;5107020;27;20200;-68
2023/10/06 11:55:14;;;;;;;4.40;2.73;;;16.10;99.90;;;;;;5107786;28;20198;-67
2023/10/06 11:57:47;;;;;;;4.07;2.57;;;16.10;99.90;;;;;;5106840;28;20225;-67
2023/10/06 12:00:17;;;;;;;2.40;2.20;;;16.10;99.90;;;;;;5107862;28;20200;-69
2023/10/06 12:02:53;;;;;;;3.20;2.77;;;16.10;99.90;;;;;;5105223;28;20229;-68
2023/10/06 12:05:21;;;;;;;7.37;3.10;;;16.10;99.90;;;;;;5105067;28;20185;-68
2023/10/06 12:07:49;;;;;;;4.70;2.60;;;16.10;99.90;;;;;;5106871;28;20199;-68
2023/10/06 12:10:18;;;;;;;3.53;2.30;;;16.10;99.90;;;;;;5108432;28;20218;-69
2023/10/06 12:12:48;;;;;;;2.77;2.37;;;16.10;99.90;;;;;;5105014;28;20196;-69
2023/10/06 12:15:15;;;;;;;4.33;2.77;;;16.10;99.90;;;;;;5107891;27;20200;-66
2023/10/06 12:17:43;;;;;;;3.33;2.77;;;16.20;99.90;;;;;;5108747;28;20192;-68
2023/10/06 12:20:13;;;;;;;4.10;3.00;;;16.30;99.90;;;;;;5101050;28;20192;-69
2023/10/06 12:22:42;;;;;;;6.70;2.50;;;16.30;99.90;;;;;;5108420;27;20208;-68
2023/10/06 12:25:12;;;;;;;4.03;2.90;;;16.40;99.90;;;;;;5104086;28;20232;-68
2023/10/06 12:27:40;;;;;;;4.33;3.30;;;16.40;99.90;;;;;;5106806;28;20676;-66
2023/10/06 12:30:10;;;;;;;4.57;3.43;;;16.50;99.90;;;;;;5105740;28;20210;-68
2023/10/06 12:32:37;;;;;;;3.73;3.00;;;16.50;99.90;;;;;;5104773;27;20292;-67
2023/10/06 12:35:06;;;;;;;3.27;2.97;;;16.50;99.90;;;;;;5107307;28;20196;-67
2023/10/06 12:37:34;;;;;;;3.50;2.47;;;16.50;99.90;;;;;;5105696;28;20226;-69
2023/10/06 12:40:03;;;;;;;2.50;2.30;;;16.50;99.90;;;;;;5101043;28;20199;-67
2023/10/06 12:42:31;;;;;;;3.07;2.20;;;16.50;99.90;;;;;;5108182;28;20343;-68
2023/10/06 12:45:02;;;;;;;3.83;2.67;;;16.50;99.90;;;;;;5107882;28;20197;-66
2023/10/06 12:47:31;;;;;;;3.40;2.60;;;16.60;99.90;;;;;;5105356;28;20191;-68
2023/10/06 12:50:05;;;;;;;2.90;2.60;;;16.50;99.90;;;;;;5107252;27;20213;-68
2023/10/06 12:52:34;;;;;;;4.93;3.27;;;16.50;99.90;;;;;;5105860;28;20286;-68
2023/10/06 12:55:05;;;;;;;4.77;3.20;;;16.50;99.90;;;;;;5105009;28;20205;-67
2023/10/06 12:57:34;;;;;;;4.83;3.13;;;16.50;99.90;;;;;;5109526;28;20288;-67
2023/10/06 13:00:02;;;;;;;6.17;4.03;;;16.50;99.90;;;;;;5108810;27;20684;-67
2023/10/06 13:02:32;;;;;;;4.90;3.87;;;16.50;99.90;;;;;;5145720;27;20200;-67
2023/10/06 13:05:05;;;;;;;3.57;3.27;;;16.50;99.90;;;;;;5111263;28;20238;-68